sensor_id;sensor_type;location;lat;lon;timestamp;pressure;altitude;pressure_sealevel;temperature;humidity
34921;BME280;21128;50.016;20.002;2023-06-10T00:00:44;98542.89;;;17.25;100.00
34921;BME280;21128;50.016;20.002;2023-06-10T00:03:31;98557.81;;;17.26;100.00
34921;BME280;21128;50.016;20.002;2023-06-10T00:05:58;98552.50;;;17.26;100.00
34921;BME280;21128;50.016;20.002;2023-06-10T00:08:25;98557.22;;;17.31;100.00
34921;BME280;21128;50.016;20.002;2023-06-10T00:10:52;98554.40;;;17.32;100.00
34921;BME280;21128;50.016;20.002;2023-06-10T00:13:19;98557.67;;;17.34;100.00
34921;BME280;21128;50.016;20.002;2023-06-10T00:15:46;98557.28;;;17.37;100.00
34921;BME280;21128;50.016;20.002;2023-06-10T00:18:13;98554.40;;;17.32;100.00
34921;BME280;21128;50.016;20.002;2023-06-10T00:20:40;98556.59;;;17.29;100.00
34921;BME280;21128;50.016;20.002;2023-06-10T00:23:07;98556.37;;;17.24;100.00
34921;BME280;21128;50.016;20.002;2023-06-10T00:25:35;98557.69;;;17.13;100.00
34921;BME280;21128;50.016;20.002;2023-06-10T00:28:02;98563.77;;;17.07;100.00
34921;BME280;21128;50.016;20.002;2023-06-10T00:30:29;98561.68;;;17.02;100.00
34921;BME280;21128;50.016;20.002;2023-06-10T00:32:56;98560.39;;;16.98;100.00
34921;BME280;21128;50.016;20.002;2023-06-10T00:35:23;98556.49;;;16.94;100.00
34921;BME280;21128;50.016;20.002;2023-06-10T00:37:50;98563.02;;;16.92;100.00
34921;BME280;21128;50.016;20.002;2023-06-10T00:40:17;98557.90;;;16.90;100.00
34921;BME280;21128;50.016;20.002;2023-06-10T00:42:44;98560.72;;;16.88;100.00
34921;BME280;21128;50.016;20.002;2023-06-10T00:45:11;98561.92;;;16.86;100.00
34921;BME280;21128;50.016;20.002;2023-06-10T00:47:39;98573.55;;;16.85;100.00
34921;BME280;21128;50.016;20.002;2023-06-10T00:50:06;98567.63;;;16.83;100.00
34921;BME280;21128;50.016;20.002;2023-06-10T00:52:34;98565.98;;;16.82;100.00
34921;BME280;21128;50.016;20.002;2023-06-10T00:55:02;98569.26;;;16.84;100.00
34921;BME280;21128;50.016;20.002;2023-06-10T00:57:29;98570.27;;;16.83;100.00
34921;BME280;21128;50.016;20.002;2023-06-10T00:59:56;98567.63;;;16.83;100.00
34921;BME280;21128;50.016;20.002;2023-06-10T01:02:24;98575.39;;;16.84;100.00
34921;BME280;21128;50.016;20.002;2023-06-10T01:04:51;98572.11;;;16.82;100.00
34921;BME280;21128;50.016;20.002;2023-06-10T01:10:20;98576.33;;;16.77;100.00
34921;BME280;21128;50.016;20.002;2023-06-10T01:12:59;98574.69;;;16.76;100.00
34921;BME280;21128;50.016;20.002;2023-06-10T01:15:30;98575.89;;;16.73;100.00
34921;BME280;21128;50.016;20.002;2023-06-10T01:18:08;98584.67;;;16.74;100.00
34921;BME280;21128;50.016;20.002;2023-06-10T01:20:37;98575.04;;;16.73;100.00
34921;BME280;21128;50.016;20.002;2023-06-10T01:23:07;98571.21;;;16.75;100.00
34921;BME280;21128;50.016;20.002;2023-06-10T01:25:37;98574.06;;;16.74;100.00
34921;BME280;21128;50.016;20.002;2023-06-10T01:33:37;98579.09;;;16.69;100.00
34921;BME280;21128;50.016;20.002;2023-06-10T01:36:06;98578.08;;;16.70;100.00
34921;BME280;21128;50.016;20.002;2023-06-10T01:38:39;98575.78;;;16.67;100.00
34921;BME280;21128;50.016;20.002;2023-06-10T01:41:07;98577.15;;;16.63;100.00
34921;BME280;21128;50.016;20.002;2023-06-10T01:43:37;98578.78;;;16.64;100.00
34921;BME280;21128;50.016;20.002;2023-06-10T01:46:05;98582.92;;;16.66;100.00
34921;BME280;21128;50.016;20.002;2023-06-10T01:48:32;98586.39;;;16.67;100.00
34921;BME280;21128;50.016;20.002;2023-06-10T01:50:59;98579.91;;;16.69;100.00
34921;BME280;21128;50.016;20.002;2023-06-10T01:53:26;98575.89;;;16.73;100.00
34921;BME280;21128;50.016;20.002;2023-06-10T01:55:53;98579.17;;;16.75;100.00
34921;BME280;21128;50.016;20.002;2023-06-10T01:58:20;98578.34;;;16.75;100.00
34921;BME280;21128;50.016;20.002;2023-06-10T02:00:47;98575.89;;;16.73;100.00
34921;BME280;21128;50.016;20.002;2023-06-10T02:03:14;98571.76;;;16.71;100.00
34921;BME280;21128;50.016;20.002;2023-06-10T02:05:41;98576.44;;;16.69;100.00
34921;BME280;21128;50.016;20.002;2023-06-10T02:08:08;98579.45;;;16.66;100.00
34921;BME280;21128;50.016;20.002;2023-06-10T02:10:35;98579.45;;;16.66;100.00
34921;BME280;21128;50.016;20.002;2023-06-10T02:13:02;98570.67;;;16.65;100.00
34921;BME280;21128;50.016;20.002;2023-06-10T02:15:29;98577.77;;;16.65;100.00
34921;BME280;21128;50.016;20.002;2023-06-10T02:17:56;98580.42;;;16.65;100.00
34921;BME280;21128;50.016;20.002;2023-06-10T02:20:24;98581.00;;;16.60;100.00
34921;BME280;21128;50.016;20.002;2023-06-10T02:22:51;98584.67;;;16.59;100.00
34921;BME280;21128;50.016;20.002;2023-06-10T02:25:19;98575.07;;;16.58;100.00
34921;BME280;21128;50.016;20.002;2023-06-10T02:27:46;98584.86;;;16.57;100.00
34921;BME280;21128;50.016;20.002;2023-06-10T02:30:13;98576.52;;;16.60;100.00
34921;BME280;21128;50.016;20.002;2023-06-10T02:32:40;98573.32;;;16.65;100.00
34921;BME280;21128;50.016;20.002;2023-06-10T02:35:08;98580.73;;;16.70;100.00
34921;BME280;21128;50.016;20.002;2023-06-10T02:37:39;98583.66;;;16.75;100.00
34921;BME280;21128;50.016;20.002;2023-06-10T02:40:07;98575.31;;;16.78;100.00
34921;BME280;21128;50.016;20.002;2023-06-10T02:42:35;98588.19;;;16.81;100.00
34921;BME280;21128;50.016;20.002;2023-06-10T02:45:03;98583.55;;;16.83;100.00
34921;BME280;21128;50.016;20.002;2023-06-10T02:47:30;98577.22;;;16.84;100.00
34921;BME280;21128;50.016;20.002;2023-06-10T02:49:57;98587.45;;;16.87;100.00
34921;BME280;21128;50.016;20.002;2023-06-10T02:52:24;98589.28;;;16.86;100.00
34921;BME280;21128;50.016;20.002;2023-06-10T02:54:51;98590.73;;;16.89;100.00
34921;BME280;21128;50.016;20.002;2023-06-10T02:57:18;98594.04;;;16.91;100.00
34921;BME280;21128;50.016;20.002;2023-06-10T02:59:45;98592.20;;;16.92;100.00
34921;BME280;21128;50.016;20.002;2023-06-10T03:02:12;98592.40;;;16.90;100.00
34921;BME280;21128;50.016;20.002;2023-06-10T03:04:39;98597.70;;;16.90;100.00
34921;BME280;21128;50.016;20.002;2023-06-10T03:07:07;98596.69;;;16.91;100.00
34921;BME280;21128;50.016;20.002;2023-06-10T03:09:35;98608.13;;;16.92;100.00
34921;BME280;21128;50.016;20.002;2023-06-10T03:12:02;98601.61;;;16.94;100.00
34921;BME280;21128;50.016;20.002;2023-06-10T03:14:29;98603.25;;;16.95;100.00
34921;BME280;21128;50.016;20.002;2023-06-10T03:16:56;98608.56;;;16.95;100.00
34921;BME280;21128;50.016;20.002;2023-06-10T03:19:23;98615.70;;;16.95;100.00
34921;BME280;21128;50.016;20.002;2023-06-10T03:22:07;98614.69;;;16.96;100.00
34921;BME280;21128;50.016;20.002;2023-06-10T03:24:35;98622.66;;;16.96;100.00
34921;BME280;21128;50.016;20.002;2023-06-10T03:27:03;98616.13;;;16.98;100.00
34921;BME280;21128;50.016;20.002;2023-06-10T03:29:31;98618.79;;;16.98;100.00
34921;BME280;21128;50.016;20.002;2023-06-10T03:31:58;98616.13;;;16.98;100.00
34921;BME280;21128;50.016;20.002;2023-06-10T03:34:25;98615.31;;;16.98;100.00
34921;BME280;21128;50.016;20.002;2023-06-10T03:36:53;98616.33;;;16.97;100.00
34921;BME280;21128;50.016;20.002;2023-06-10T03:39:20;98620.45;;;16.99;100.00
34921;BME280;21128;50.016;20.002;2023-06-10T03:41:47;98609.84;;;16.99;100.00
34921;BME280;21128;50.016;20.002;2023-06-10T03:44:14;98610.66;;;17.00;100.00
34921;BME280;21128;50.016;20.002;2023-06-10T03:46:41;98620.07;;;17.02;100.00
34921;BME280;21128;50.016;20.002;2023-06-10T03:49:08;98620.89;;;17.03;100.00
34921;BME280;21128;50.016;20.002;2023-06-10T03:51:36;98615.39;;;17.04;100.00
34921;BME280;21128;50.016;20.002;2023-06-10T03:54:03;98613.55;;;17.05;100.00
34921;BME280;21128;50.016;20.002;2023-06-10T03:56:31;98617.03;;;17.05;100.00
34921;BME280;21128;50.016;20.002;2023-06-10T03:58:58;98616.21;;;17.05;100.00
34921;BME280;21128;50.016;20.002;2023-06-10T04:01:25;98616.21;;;17.05;100.00
34921;BME280;21128;50.016;20.002;2023-06-10T04:03:53;98623.98;;;17.06;100.00
34921;BME280;21128;50.016;20.002;2023-06-10T04:06:21;98626.63;;;17.06;100.00
34921;BME280;21128;50.016;20.002;2023-06-10T04:08:49;98632.95;;;17.05;100.00
34921;BME280;21128;50.016;20.002;2023-06-10T04:11:16;98628.47;;;17.06;100.00
34921;BME280;21128;50.016;20.002;2023-06-10T04:13:43;98628.47;;;17.06;100.00
34921;BME280;21128;50.016;20.002;2023-06-10T04:16:10;98636.27;;;17.07;100.00
34921;BME280;21128;50.016;20.002;2023-06-10T04:18:37;98638.73;;;17.09;100.00
34921;BME280;21128;50.016;20.002;2023-06-10T04:21:04;98632.41;;;17.10;100.00
34921;BME280;21128;50.016;20.002;2023-06-10T04:23:31;98632.21;;;17.11;100.00
34921;BME280;21128;50.016;20.002;2023-06-10T04:25:58;98634.05;;;17.11;100.00
34921;BME280;21128;50.016;20.002;2023-06-10T04:28:26;98631.83;;;17.14;100.00
34921;BME280;21128;50.016;20.002;2023-06-10T04:30:53;98635.30;;;17.15;100.00
34921;BME280;21128;50.016;20.002;2023-06-10T04:33:20;98636.97;;;17.16;100.00
34921;BME280;21128;50.016;20.002;2023-06-10T04:35:47;98629.36;;;17.13;100.00
34921;BME280;21128;50.016;20.002;2023-06-10T04:38:14;98640.80;;;17.13;100.00
34921;BME280;21128;50.016;20.002;2023-06-10T04:40:41;98651.23;;;17.15;100.00
34921;BME280;21128;50.016;20.002;2023-06-10T04:43:08;98639.98;;;17.13;100.00
34921;BME280;21128;50.016;20.002;2023-06-10T04:45:35;98644.28;;;17.14;100.00
34921;BME280;21128;50.016;20.002;2023-06-10T04:48:02;98640.44;;;17.16;100.00
34921;BME280;21128;50.016;20.002;2023-06-10T04:50:29;98652.70;;;17.18;100.00
34921;BME280;21128;50.016;20.002;2023-06-10T04:52:57;98651.49;;;17.20;100.00
34921;BME280;21128;50.016;20.002;2023-06-10T04:55:24;98646.19;;;17.20;100.00
34921;BME280;21128;50.016;20.002;2023-06-10T04:57:52;98654.97;;;17.21;100.00
34921;BME280;21128;50.016;20.002;2023-06-10T05:00:19;98656.61;;;17.22;100.00
34921;BME280;21128;50.016;20.002;2023-06-10T05:02:46;98658.64;;;17.20;100.00
34921;BME280;21128;50.016;20.002;2023-06-10T05:05:19;98660.67;;;17.18;100.00
34921;BME280;21128;50.016;20.002;2023-06-10T05:07:46;98667.00;;;17.16;100.00
34921;BME280;21128;50.016;20.002;2023-06-10T05:10:13;98671.09;;;17.19;100.00
34921;BME280;21128;50.016;20.002;2023-06-10T05:12:40;98667.23;;;17.22;100.00
34921;BME280;21128;50.016;20.002;2023-06-10T05:15:08;98661.92;;;17.22;100.00
34921;BME280;21128;50.016;20.002;2023-06-10T05:17:35;98671.17;;;17.26;100.00
34921;BME280;21128;50.016;20.002;2023-06-10T05:20:03;98667.11;;;17.30;100.00
34921;BME280;21128;50.016;20.002;2023-06-10T05:22:30;98676.55;;;17.32;100.00
34921;BME280;21128;50.016;20.002;2023-06-10T05:24:57;98673.31;;;17.37;100.00
34921;BME280;21128;50.016;20.002;2023-06-10T05:27:24;98671.12;;;17.40;100.00
34921;BME280;21128;50.016;20.002;2023-06-10T05:29:52;98674.41;;;17.42;100.00
34921;BME280;21128;50.016;20.002;2023-06-10T05:32:19;98669.91;;;17.43;100.00
34921;BME280;21128;50.016;20.002;2023-06-10T05:34:46;98678.11;;;17.48;100.00
34921;BME280;21128;50.016;20.002;2023-06-10T05:37:13;98685.72;;;17.51;100.00
34921;BME280;21128;50.016;20.002;2023-06-10T05:39:40;98689.89;;;17.60;100.00
34921;BME280;21128;50.016;20.002;2023-06-10T05:42:08;98681.33;;;17.65;100.00
34921;BME280;21128;50.016;20.002;2023-06-10T05:44:35;98678.11;;;17.69;100.00
34921;BME280;21128;50.016;20.002;2023-06-10T05:47:02;98683.89;;;17.73;100.00
34921;BME280;21128;50.016;20.002;2023-06-10T05:49:29;98684.34;;;17.77;100.00
34921;BME280;21128;50.016;20.002;2023-06-10T05:51:56;98689.89;;;17.82;100.00
34921;BME280;21128;50.016;20.002;2023-06-10T05:54:26;98688.11;;;17.89;100.00
34921;BME280;21128;50.016;20.002;2023-06-10T05:56:53;98695.52;;;17.93;100.00
34921;BME280;21128;50.016;20.002;2023-06-10T05:59:20;98694.30;;;17.96;100.00
34921;BME280;21128;50.016;20.002;2023-06-10T06:01:49;98687.61;;;18.00;100.00
34921;BME280;21128;50.016;20.002;2023-06-10T06:04:16;98698.23;;;18.00;100.00
34921;BME280;21128;50.016;20.002;2023-06-10T06:06:43;98696.63;;;18.06;100.00
34921;BME280;21128;50.016;20.002;2023-06-10T06:09:10;98699.34;;;18.12;100.00
34921;BME280;21128;50.016;20.002;2023-06-10T06:11:37;98698.37;;;18.20;100.00
34921;BME280;21128;50.016;20.002;2023-06-10T06:14:04;98701.28;;;18.25;100.00
34921;BME280;21128;50.016;20.002;2023-06-10T06:16:32;98705.13;;;18.22;100.00
34921;BME280;21128;50.016;20.002;2023-06-10T06:18:59;98688.75;;;18.19;100.00
34921;BME280;21128;50.016;20.002;2023-06-10T06:21:26;98695.14;;;18.24;100.00
34921;BME280;21128;50.016;20.002;2023-06-10T06:23:53;98687.59;;;18.28;100.00
34921;BME280;21128;50.016;20.002;2023-06-10T06:26:20;98700.06;;;18.27;100.00
34921;BME280;21128;50.016;20.002;2023-06-10T06:28:47;98697.00;;;18.31;100.00
34921;BME280;21128;50.016;20.002;2023-06-10T06:31:14;98696.63;;;18.34;100.00
34921;BME280;21128;50.016;20.002;2023-06-10T06:33:41;98697.87;;;18.38;100.00
34921;BME280;21128;50.016;20.002;2023-06-10T06:36:08;98700.78;;;18.43;100.00
34921;BME280;21128;50.016;20.002;2023-06-10T06:38:35;98708.16;;;18.47;100.00
34921;BME280;21128;50.016;20.002;2023-06-10T06:41:01;98711.88;;;18.53;100.00
34921;BME280;21128;50.016;20.002;2023-06-10T06:43:30;98715.61;;;18.59;100.00
34921;BME280;21128;50.016;20.002;2023-06-10T06:45:57;98714.59;;;18.60;100.00
34921;BME280;21128;50.016;20.002;2023-06-10T06:48:24;98719.70;;;18.61;100.00
34921;BME280;21128;50.016;20.002;2023-06-10T06:50:51;98724.28;;;18.67;100.00
34921;BME280;21128;50.016;20.002;2023-06-10T06:53:18;98729.61;;;18.67;100.00
34921;BME280;21128;50.016;20.002;2023-06-10T06:55:45;98730.84;;;18.71;100.00
34921;BME280;21128;50.016;20.002;2023-06-10T06:58:12;98724.78;;;18.84;100.00
34921;BME280;21128;50.016;20.002;2023-06-10T07:00:39;98721.09;;;18.92;100.00
34921;BME280;21128;50.016;20.002;2023-06-10T07:03:06;98735.06;;;18.94;100.00
34921;BME280;21128;50.016;20.002;2023-06-10T07:05:33;98726.45;;;18.98;100.00
34921;BME280;21128;50.016;20.002;2023-06-10T07:08:00;98731.41;;;19.08;100.00
34921;BME280;21128;50.016;20.002;2023-06-10T07:10:28;98737.59;;;19.15;100.00
34921;BME280;21128;50.016;20.002;2023-06-10T07:12:55;98742.13;;;19.21;100.00
34921;BME280;21128;50.016;20.002;2023-06-10T07:15:22;98736.39;;;19.24;100.00
34921;BME280;21128;50.016;20.002;2023-06-10T07:17:48;98745.41;;;19.23;100.00
34921;BME280;21128;50.016;20.002;2023-06-10T07:20:15;98747.25;;;19.23;100.00
34921;BME280;21128;50.016;20.002;2023-06-10T07:22:42;98748.48;;;19.20;100.00
34921;BME280;21128;50.016;20.002;2023-06-10T07:25:09;98751.34;;;19.19;100.00
34921;BME280;21128;50.016;20.002;2023-06-10T07:27:36;98748.89;;;19.17;100.00
34921;BME280;21128;50.016;20.002;2023-06-10T07:30:05;98748.23;;;19.15;100.00
34921;BME280;21128;50.016;20.002;2023-06-10T07:32:33;98747.04;;;19.24;100.00
34921;BME280;21128;50.016;20.002;2023-06-10T07:35:01;98751.17;;;19.27;100.00
34921;BME280;21128;50.016;20.002;2023-06-10T07:37:28;98748.09;;;19.30;100.00
34921;BME280;21128;50.016;20.002;2023-06-10T07:39:56;98753.22;;;19.31;100.00
34921;BME280;21128;50.016;20.002;2023-06-10T07:42:23;98752.40;;;19.31;100.00
34921;BME280;21128;50.016;20.002;2023-06-10T07:44:50;98744.64;;;19.36;100.00
34921;BME280;21128;50.016;20.002;2023-06-10T07:47:17;98749.53;;;19.32;100.00
34921;BME280;21128;50.016;20.002;2023-06-10T07:49:45;98747.89;;;19.31;100.00
34921;BME280;21128;50.016;20.002;2023-06-10T07:52:11;98757.75;;;19.37;100.00
34921;BME280;21128;50.016;20.002;2023-06-10T07:54:38;98758.59;;;19.45;100.00
34921;BME280;21128;50.016;20.002;2023-06-10T07:57:06;98754.94;;;19.52;100.00
34921;BME280;21128;50.016;20.002;2023-06-10T07:59:33;98754.77;;;19.67;100.00
34921;BME280;21128;50.016;20.002;2023-06-10T08:02:00;98756.05;;;19.84;100.00
34921;BME280;21128;50.016;20.002;2023-06-10T08:04:27;98748.66;;;20.00;100.00
34921;BME280;21128;50.016;20.002;2023-06-10T08:06:54;98755.84;;;20.06;100.00
34921;BME280;21128;50.016;20.002;2023-06-10T08:09:21;98755.22;;;20.17;100.00
34921;BME280;21128;50.016;20.002;2023-06-10T08:11:49;98754.20;;;20.24;100.00
34921;BME280;21128;50.016;20.002;2023-06-10T08:14:16;98756.66;;;20.39;100.00
34921;BME280;21128;50.016;20.002;2023-06-10T08:16:44;98753.80;;;20.54;100.00
34921;BME280;21128;50.016;20.002;2023-06-10T08:19:11;98758.09;;;20.62;100.00
34921;BME280;21128;50.016;20.002;2023-06-10T08:21:38;98765.45;;;20.73;100.00
34921;BME280;21128;50.016;20.002;2023-06-10T08:24:06;98762.95;;;20.85;100.00
34921;BME280;21128;50.016;20.002;2023-06-10T08:26:34;98763.16;;;20.90;100.00
34921;BME280;21128;50.016;20.002;2023-06-10T08:29:01;98755.74;;;20.92;100.00
34921;BME280;21128;50.016;20.002;2023-06-10T08:31:28;98768.48;;;20.96;100.00
34921;BME280;21128;50.016;20.002;2023-06-10T08:33:55;98768.05;;;20.99;100.00
34921;BME280;21128;50.016;20.002;2023-06-10T08:36:22;98768.87;;;21.00;100.00
34921;BME280;21128;50.016;20.002;2023-06-10T08:38:49;98764.17;;;20.95;100.00
34921;BME280;21128;50.016;20.002;2023-06-10T08:41:17;98758.59;;;21.03;100.00
34921;BME280;21128;50.016;20.002;2023-06-10T08:44:01;98755.88;;;21.10;100.00
34921;BME280;21128;50.016;20.002;2023-06-10T08:46:31;98767.14;;;21.19;100.00
34921;BME280;21128;50.016;20.002;2023-06-10T08:49:03;98763.86;;;21.30;100.00
34921;BME280;21128;50.016;20.002;2023-06-10T08:51:32;98765.69;;;21.36;100.00
34921;BME280;21128;50.016;20.002;2023-06-10T08:54:05;98764.19;;;21.47;100.00
34921;BME280;21128;50.016;20.002;2023-06-10T08:56:39;98767.84;;;21.52;100.00
34921;BME280;21128;50.016;20.002;2023-06-10T08:59:08;98769.66;;;21.58;100.00
34921;BME280;21128;50.016;20.002;2023-06-10T09:01:35;98761.80;;;21.70;100.00
34921;BME280;21128;50.016;20.002;2023-06-10T09:04:04;98755.52;;;21.83;100.00
34921;BME280;21128;50.016;20.002;2023-06-10T09:06:32;98758.37;;;21.88;100.00
34921;BME280;21128;50.016;20.002;2023-06-10T09:09:00;98750.91;;;21.97;100.00
34921;BME280;21128;50.016;20.002;2023-06-10T09:11:28;98756.81;;;22.05;100.00
34921;BME280;21128;50.016;20.002;2023-06-10T09:13:55;98756.13;;;22.16;100.00
34921;BME280;21128;50.016;20.002;2023-06-10T09:16:23;98757.75;;;22.17;100.00
34921;BME280;21128;50.016;20.002;2023-06-10T09:18:51;98754.22;;;22.24;100.00
34921;BME280;21128;50.016;20.002;2023-06-10T09:21:25;98749.03;;;22.29;99.37
34921;BME280;21128;50.016;20.002;2023-06-10T09:23:52;98748.76;;;22.37;98.75
34921;BME280;21128;50.016;20.002;2023-06-10T09:26:19;98762.73;;;22.39;100.00
34921;BME280;21128;50.016;20.002;2023-06-10T09:28:49;98760.82;;;22.46;99.91
34921;BME280;21128;50.016;20.002;2023-06-10T09:31:16;98758.45;;;22.56;100.00
34921;BME280;21128;50.016;20.002;2023-06-10T09:33:45;98763.35;;;22.59;99.50
34921;BME280;21128;50.016;20.002;2023-06-10T09:36:22;98755.18;;;22.54;98.49
34921;BME280;21128;50.016;20.002;2023-06-10T09:38:50;98752.33;;;22.49;97.78
34921;BME280;21128;50.016;20.002;2023-06-10T09:41:19;98752.90;;;22.33;98.69
34921;BME280;21128;50.016;20.002;2023-06-10T09:43:46;98752.58;;;22.23;97.47
34921;BME280;21128;50.016;20.002;2023-06-10T09:46:19;98752.63;;;22.16;97.44
34921;BME280;21128;50.016;20.002;2023-06-10T09:48:47;98750.55;;;22.18;97.54
34921;BME280;21128;50.016;20.002;2023-06-10T09:51:15;98757.44;;;22.07;96.87
34921;BME280;21128;50.016;20.002;2023-06-10T09:53:51;98754.55;;;22.02;96.49
34921;BME280;21128;50.016;20.002;2023-06-10T09:56:18;98750.64;;;22.05;97.49
34921;BME280;21128;50.016;20.002;2023-06-10T09:58:45;98755.17;;;22.04;96.49
34921;BME280;21128;50.016;20.002;2023-06-10T10:01:14;98749.47;;;21.94;96.68
34921;BME280;21128;50.016;20.002;2023-06-10T10:03:50;98759.94;;;21.71;95.79
34921;BME280;21128;50.016;20.002;2023-06-10T10:06:18;98752.20;;;21.56;95.86
34921;BME280;21128;50.016;20.002;2023-06-10T10:08:47;98760.75;;;21.33;96.26
34921;BME280;21128;50.016;20.002;2023-06-10T10:11:20;98757.09;;;21.21;97.39
34921;BME280;21128;50.016;20.002;2023-06-10T10:13:51;98760.16;;;21.18;97.32
34921;BME280;21128;50.016;20.002;2023-06-10T10:16:30;98766.56;;;21.10;97.79
34921;BME280;21128;50.016;20.002;2023-06-10T10:19:02;98764.55;;;21.05;96.66
34921;BME280;21128;50.016;20.002;2023-06-10T10:21:35;98773.61;;;20.98;96.37
34921;BME280;21128;50.016;20.002;2023-06-10T10:24:14;98761.91;;;20.92;97.27
34921;BME280;21128;50.016;20.002;2023-06-10T10:26:43;98762.70;;;20.99;97.40
34921;BME280;21128;50.016;20.002;2023-06-10T10:29:19;98764.76;;;21.04;97.22
34921;BME280;21128;50.016;20.002;2023-06-10T10:31:50;98761.89;;;20.99;96.48
34921;BME280;21128;50.016;20.002;2023-06-10T10:34:26;98764.13;;;21.02;97.60
34921;BME280;21128;50.016;20.002;2023-06-10T10:36:57;98757.71;;;21.16;98.18
34921;BME280;21128;50.016;20.002;2023-06-10T10:39:25;98760.91;;;21.45;98.40
34921;BME280;21128;50.016;20.002;2023-06-10T10:41:55;98761.65;;;21.90;99.44
34921;BME280;21128;50.016;20.002;2023-06-10T10:44:23;98764.42;;;22.08;96.35
34921;BME280;21128;50.016;20.002;2023-06-10T10:46:51;98762.65;;;21.96;96.61
34921;BME280;21128;50.016;20.002;2023-06-10T10:49:18;98774.72;;;21.73;96.29
34921;BME280;21128;50.016;20.002;2023-06-10T10:52:01;98767.23;;;21.50;96.26
34921;BME280;21128;50.016;20.002;2023-06-10T10:54:33;98767.56;;;21.29;96.81
34921;BME280;21128;50.016;20.002;2023-06-10T10:57:14;98761.20;;;21.17;97.66
34921;BME280;21128;50.016;20.002;2023-06-10T11:05:01;98767.67;;;20.89;100.00
34921;BME280;21128;50.016;20.002;2023-06-10T11:07:32;98764.77;;;20.97;100.00
34921;BME280;21128;50.016;20.002;2023-06-10T11:10:01;98761.45;;;21.02;100.00
34921;BME280;21128;50.016;20.002;2023-06-10T11:12:50;98768.27;;;20.98;100.00
34921;BME280;21128;50.016;20.002;2023-06-10T11:15:21;98774.66;;;20.90;100.00
34921;BME280;21128;50.016;20.002;2023-06-10T11:28:39;98758.91;;;20.69;100.00
34921;BME280;21128;50.016;20.002;2023-06-10T11:31:06;98761.58;;;20.69;100.00
34921;BME280;21128;50.016;20.002;2023-06-10T11:33:38;98757.24;;;20.68;100.00
34921;BME280;21128;50.016;20.002;2023-06-10T11:36:09;98754.17;;;20.71;100.00
34921;BME280;21128;50.016;20.002;2023-06-10T11:38:36;98756.20;;;20.75;100.00
34921;BME280;21128;50.016;20.002;2023-06-10T11:41:03;98758.64;;;20.84;100.00
34921;BME280;21128;50.016;20.002;2023-06-10T11:43:30;98760.27;;;20.91;100.00
34921;BME280;21128;50.016;20.002;2023-06-10T11:46:00;98762.11;;;20.97;100.00
34921;BME280;21128;50.016;20.002;2023-06-10T11:48:28;98756.11;;;21.02;100.00
34921;BME280;21128;50.016;20.002;2023-06-10T11:50:57;98755.95;;;20.90;100.00
34921;BME280;21128;50.016;20.002;2023-06-10T11:53:24;98771.38;;;20.88;100.00
34921;BME280;21128;50.016;20.002;2023-06-10T11:55:53;98769.31;;;20.90;100.00
34921;BME280;21128;50.016;20.002;2023-06-10T11:58:21;98755.52;;;20.93;100.00
34921;BME280;21128;50.016;20.002;2023-06-10T12:00:51;98766.84;;;20.95;100.00
34921;BME280;21128;50.016;20.002;2023-06-10T12:03:20;98765.59;;;20.98;100.00
34921;BME280;21128;50.016;20.002;2023-06-10T12:06:03;98771.32;;;21.01;100.00
34921;BME280;21128;50.016;20.002;2023-06-10T12:08:31;98762.67;;;21.13;99.67
34921;BME280;21128;50.016;20.002;2023-06-10T12:10:59;98765.80;;;21.54;99.76
34921;BME280;21128;50.016;20.002;2023-06-10T12:13:27;98752.95;;;21.70;98.18
34921;BME280;21128;50.016;20.002;2023-06-10T12:16:06;98751.50;;;21.99;99.26
34921;BME280;21128;50.016;20.002;2023-06-10T12:18:33;98751.54;;;22.24;95.90
34921;BME280;21128;50.016;20.002;2023-06-10T12:21:00;98760.20;;;22.44;96.81
34921;BME280;21128;50.016;20.002;2023-06-10T12:23:27;98748.33;;;22.76;96.76
34921;BME280;21128;50.016;20.002;2023-06-10T12:25:55;98762.89;;;23.06;95.42
34921;BME280;21128;50.016;20.002;2023-06-10T12:28:23;98756.02;;;23.10;94.23
34921;BME280;21128;50.016;20.002;2023-06-10T12:30:51;98756.33;;;23.01;92.85
34921;BME280;21128;50.016;20.002;2023-06-10T12:33:19;98751.27;;;22.93;93.57
34921;BME280;21128;50.016;20.002;2023-06-10T12:35:48;98755.08;;;23.04;93.93
34921;BME280;21128;50.016;20.002;2023-06-10T12:38:26;98758.70;;;23.10;93.26
34921;BME280;21128;50.016;20.002;2023-06-10T12:41:02;98749.41;;;22.94;92.30
34921;BME280;21128;50.016;20.002;2023-06-10T12:43:31;98756.70;;;22.87;92.00
34921;BME280;21128;50.016;20.002;2023-06-10T12:46:08;98749.51;;;22.87;91.59
34921;BME280;21128;50.016;20.002;2023-06-10T12:48:36;98750.42;;;22.74;90.74
34921;BME280;21128;50.016;20.002;2023-06-10T12:51:03;98752.06;;;22.75;91.21
34921;BME280;21128;50.016;20.002;2023-06-10T12:53:32;98755.97;;;22.98;91.88
34921;BME280;21128;50.016;20.002;2023-06-10T12:55:59;98744.64;;;23.14;89.55
34921;BME280;21128;50.016;20.002;2023-06-10T12:58:29;98754.28;;;23.34;89.08
34921;BME280;21128;50.016;20.002;2023-06-10T13:00:56;98743.09;;;23.37;87.27
34921;BME280;21128;50.016;20.002;2023-06-10T13:03:23;98747.12;;;23.46;85.90
34921;BME280;21128;50.016;20.002;2023-06-10T13:05:50;98737.42;;;23.45;85.58
34921;BME280;21128;50.016;20.002;2023-06-10T13:08:17;98745.46;;;23.45;76.78
34921;BME280;21128;50.016;20.002;2023-06-10T13:10:44;98742.52;;;23.35;73.12
34921;BME280;21128;50.016;20.002;2023-06-10T13:13:11;98746.98;;;23.41;73.81